createdAt,value
2023-05-09T00:01:31.575Z,29.38
2023-05-09T00:03:59.280Z,22.63
2023-05-09T00:06:27.556Z,21.65
2023-05-09T00:08:55.800Z,27.70
2023-05-09T00:11:22.404Z,22.52
2023-05-09T00:13:50.576Z,27.00
2023-05-09T00:16:18.642Z,22.52
2023-05-09T00:18:45.239Z,23.10
2023-05-09T00:21:11.918Z,27.55
2023-05-09T00:23:38.835Z,19.85
2023-05-09T00:26:06.264Z,30.75
2023-05-09T00:28:33.089Z,24.23
2023-05-09T00:30:59.776Z,24.17
2023-05-09T00:33:26.878Z,26.45
2023-05-09T00:35:54.648Z,26.63
2023-05-09T00:38:22.942Z,27.20
2023-05-09T00:40:49.782Z,23.88
2023-05-09T00:43:16.776Z,21.70
2023-05-09T00:45:46.886Z,25.00
2023-05-09T00:48:15.241Z,28.52
2023-05-09T00:50:42.192Z,23.27
2023-05-09T00:53:09.492Z,24.75
2023-05-09T00:55:36.534Z,26.80
2023-05-09T00:58:03.860Z,23.58
2023-05-09T01:00:30.406Z,25.63
2023-05-09T01:02:57.216Z,25.52
2023-05-09T01:05:34.532Z,30.27
2023-05-09T01:08:10.503Z,31.40
2023-05-09T01:10:48.901Z,31.90
2023-05-09T01:13:32.112Z,25.92
2023-05-09T01:16:08.684Z,27.33
2023-05-09T01:18:44.800Z,26.45
2023-05-09T01:21:15.900Z,23.65
2023-05-09T01:23:43.917Z,26.88
2023-05-09T01:26:26.122Z,29.83
2023-05-09T01:29:11.770Z,28.17
2023-05-09T01:31:41.194Z,36.45
2023-05-09T01:34:09.826Z,32.05
2023-05-09T01:36:38.036Z,29.65
2023-05-09T01:39:05.936Z,26.05
2023-05-09T01:41:36.389Z,29.92
2023-05-09T01:44:07.715Z,24.42
2023-05-09T01:46:35.342Z,29.43
2023-05-09T01:49:03.525Z,26.58
2023-05-09T01:51:32.639Z,31.77
2023-05-09T01:54:01.232Z,27.60
2023-05-09T01:56:28.082Z,30.15
2023-05-09T01:58:56.464Z,23.20
2023-05-09T02:01:24.375Z,31.70
2023-05-09T02:03:54.711Z,29.88
2023-05-09T02:06:24.354Z,27.60
2023-05-09T02:08:51.450Z,24.48
2023-05-09T02:11:18.551Z,29.38
2023-05-09T02:13:45.234Z,32.55
2023-05-09T02:16:12.194Z,29.50
2023-05-09T02:18:38.854Z,34.55
2023-05-09T02:21:06.434Z,33.92
2023-05-09T02:23:33.016Z,32.70
2023-05-09T02:25:59.827Z,35.00
2023-05-09T02:28:28.324Z,31.70
2023-05-09T02:30:58.574Z,38.30
2023-05-09T02:33:27.174Z,39.72
2023-05-09T02:35:55.313Z,39.20
2023-05-09T02:38:22.277Z,37.13
2023-05-09T02:40:52.417Z,35.30
2023-05-09T02:43:19.396Z,35.00
2023-05-09T02:45:45.966Z,35.47
2023-05-09T02:48:12.569Z,36.70
2023-05-09T02:50:41.905Z,37.97
2023-05-09T02:53:08.698Z,41.30
2023-05-09T02:55:35.430Z,39.95
2023-05-09T02:58:12.775Z,38.67
2023-05-09T03:00:42.587Z,39.72
2023-05-09T03:03:09.651Z,48.83
2023-05-09T03:05:37.012Z,43.60
2023-05-09T03:08:03.678Z,35.90
2023-05-09T03:10:30.611Z,47.03
2023-05-09T03:12:57.415Z,43.67
2023-05-09T03:15:24.170Z,40.40
2023-05-09T03:17:51.580Z,44.22
2023-05-09T03:20:18.884Z,41.42
2023-05-09T03:22:45.462Z,304.48
2023-05-09T03:25:12.637Z,579.92
2023-05-09T03:27:39.433Z,604.20
2023-05-09T03:30:09.953Z,498.60
2023-05-09T03:32:36.865Z,492.35
2023-05-09T03:35:04.061Z,309.02
2023-05-09T03:37:32.314Z,164.35
2023-05-09T03:39:58.897Z,249.45
2023-05-09T03:42:26.553Z,124.60
2023-05-09T03:44:59.793Z,76.78
2023-05-09T03:47:26.493Z,50.28
2023-05-09T03:49:53.650Z,109.18
2023-05-09T03:52:22.745Z,71.10
2023-05-09T03:54:49.419Z,58.25
2023-05-09T03:57:17.610Z,60.20
2023-05-09T03:59:45.737Z,53.35
2023-05-09T04:02:13.917Z,48.03
2023-05-09T04:04:40.680Z,37.38
2023-05-09T04:07:08.859Z,41.05
2023-05-09T04:09:35.586Z,35.75
2023-05-09T04:12:02.135Z,45.25
2023-05-09T04:14:28.661Z,40.05
2023-05-09T04:16:55.355Z,37.60
2023-05-09T04:19:21.903Z,30.88
2023-05-09T04:21:48.747Z,62.85
2023-05-09T04:24:15.265Z,28.48
2023-05-09T04:26:44.636Z,29.25
2023-05-09T04:29:15.127Z,25.45
2023-05-09T04:31:46.834Z,25.58
2023-05-09T04:34:13.857Z,25.08
2023-05-09T04:36:40.599Z,27.42
2023-05-09T04:39:08.314Z,28.13
2023-05-09T04:41:36.190Z,29.95
2023-05-09T04:44:03.299Z,28.08
2023-05-09T04:46:29.883Z,23.13
2023-05-09T04:48:57.259Z,27.15
2023-05-09T04:51:23.799Z,24.95
2023-05-09T04:53:51.631Z,29.00
2023-05-09T04:56:21.665Z,30.98
2023-05-09T04:58:48.986Z,31.45
2023-05-09T05:01:16.651Z,29.30
2023-05-09T05:03:44.299Z,26.05
2023-05-09T05:06:11.059Z,30.98
2023-05-09T05:08:40.336Z,32.42
2023-05-09T05:11:06.949Z,30.63
2023-05-09T05:13:34.096Z,22.80
2023-05-09T05:16:01.559Z,24.15
2023-05-09T05:18:28.163Z,19.65
2023-05-09T05:20:54.708Z,20.77
2023-05-09T05:23:22.357Z,26.13
2023-05-09T05:25:52.758Z,26.25
2023-05-09T05:28:19.684Z,19.58
2023-05-09T05:30:47.018Z,63.88
2023-05-09T05:33:13.984Z,20.45
2023-05-09T05:35:40.668Z,33.42
2023-05-09T05:38:07.249Z,22.25
2023-05-09T05:40:34.372Z,25.85
2023-05-09T05:43:03.876Z,20.55
2023-05-09T05:45:32.535Z,23.52
2023-05-09T05:48:05.388Z,24.92
2023-05-09T05:50:32.474Z,18.85
2023-05-09T05:52:59.529Z,17.83
2023-05-09T05:55:26.285Z,24.35
2023-05-09T05:57:52.980Z,17.60
2023-05-09T06:00:20.607Z,22.83
2023-05-09T06:02:53.326Z,17.67
2023-05-09T06:05:25.262Z,17.95
2023-05-09T06:07:52.325Z,22.58
2023-05-09T06:10:18.879Z,19.30
2023-05-09T06:12:45.624Z,19.58
2023-05-09T06:15:12.613Z,22.30
2023-05-09T06:17:43.565Z,20.98
2023-05-09T06:20:10.616Z,20.77
2023-05-09T06:22:37.139Z,14.45
2023-05-09T06:25:03.972Z,21.98
2023-05-09T06:27:30.853Z,22.42
2023-05-09T06:29:57.482Z,24.00
2023-05-09T06:32:25.059Z,22.20
2023-05-09T06:34:52.627Z,24.23
2023-05-09T06:37:19.240Z,20.55
2023-05-09T06:39:45.787Z,24.35
2023-05-09T06:42:12.375Z,21.58
2023-05-09T06:44:39.604Z,23.60
2023-05-09T06:47:06.393Z,16.92
2023-05-09T06:49:33.753Z,16.85
2023-05-09T06:52:00.392Z,18.23
2023-05-09T06:54:27.238Z,20.90
2023-05-09T06:56:53.900Z,24.20
2023-05-09T06:59:20.652Z,26.23
2023-05-09T07:01:47.200Z,22.23
2023-05-09T07:04:16.997Z,18.25
2023-05-09T07:06:43.483Z,25.50
2023-05-09T07:09:10.081Z,29.10
2023-05-09T07:11:37.405Z,23.83
2023-05-09T07:14:04.193Z,18.80
2023-05-09T07:16:30.881Z,18.80
2023-05-09T07:18:57.395Z,39.40
2023-05-09T07:21:24.623Z,18.02
2023-05-09T07:23:51.223Z,19.30
2023-05-09T07:26:17.778Z,20.90
2023-05-09T07:28:44.298Z,19.17
2023-05-09T07:31:10.979Z,23.85
2023-05-09T07:33:37.537Z,24.58
2023-05-09T07:36:04.193Z,20.08
2023-05-09T07:38:30.698Z,17.15
2023-05-09T07:40:57.237Z,17.95
2023-05-09T07:43:23.718Z,21.17
2023-05-09T07:45:50.373Z,15.93
2023-05-09T07:48:16.870Z,21.88
2023-05-09T07:50:43.470Z,16.10
2023-05-09T07:53:10.404Z,16.30
2023-05-09T07:55:36.963Z,23.58
2023-05-09T07:58:03.533Z,12.55
2023-05-09T08:00:30.229Z,20.02
2023-05-09T08:02:59.674Z,22.17
2023-05-09T08:05:26.483Z,12.13
2023-05-09T08:07:53.047Z,15.82
2023-05-09T08:10:19.603Z,11.40
2023-05-09T08:12:46.117Z,13.65
2023-05-09T08:15:13.052Z,11.18
2023-05-09T08:17:40.130Z,26.30
2023-05-09T08:20:08.325Z,12.35
2023-05-09T08:22:34.989Z,19.15
2023-05-09T08:25:01.974Z,12.02
2023-05-09T08:27:28.533Z,13.60
2023-05-09T08:29:55.184Z,11.20
2023-05-09T08:32:21.678Z,9.50
2023-05-09T08:34:51.576Z,12.23
2023-05-09T08:37:18.162Z,10.25
2023-05-09T08:39:44.675Z,20.67
2023-05-09T08:42:15.781Z,12.10
2023-05-09T08:44:42.410Z,12.95
2023-05-09T08:47:09.325Z,7.50
2023-05-09T08:49:36.301Z,11.98
2023-05-09T08:52:03.436Z,13.05
2023-05-09T08:54:30.320Z,12.70
2023-05-09T08:56:57.800Z,10.77
2023-05-09T08:59:24.900Z,12.40
2023-05-09T09:01:53.409Z,8.32
2023-05-09T09:04:20.199Z,12.52
2023-05-09T09:06:46.883Z,11.52
2023-05-09T09:09:14.671Z,26.55
2023-05-09T09:11:42.682Z,11.75
2023-05-09T09:14:22.825Z,13.13
2023-05-09T09:16:51.116Z,9.68
2023-05-09T09:19:20.229Z,16.35
2023-05-09T09:21:49.775Z,13.30
2023-05-09T09:24:22.229Z,12.45
2023-05-09T09:26:51.033Z,11.85
2023-05-09T09:29:18.768Z,20.58
2023-05-09T09:31:46.979Z,7.63
2023-05-09T09:34:22.375Z,6.95
2023-05-09T09:36:50.391Z,11.18
2023-05-09T09:39:17.016Z,12.52
2023-05-09T09:41:44.848Z,9.98
2023-05-09T09:44:12.641Z,11.55
2023-05-09T09:46:53.247Z,9.05
2023-05-09T09:49:22.312Z,8.70
2023-05-09T09:51:56.748Z,8.07
2023-05-09T09:54:26.756Z,12.45
2023-05-09T09:56:56.435Z,12.77
2023-05-09T09:59:27.823Z,7.72
2023-05-09T10:01:55.523Z,5.63
2023-05-09T10:04:25.272Z,10.18
2023-05-09T10:06:56.858Z,8.77
2023-05-09T10:09:25.110Z,9.85
2023-05-09T10:11:53.648Z,9.68
2023-05-09T10:14:23.316Z,7.05
2023-05-09T10:16:57.329Z,7.93
2023-05-09T10:19:27.181Z,8.27
2023-05-09T10:21:58.742Z,11.23
2023-05-09T10:24:37.665Z,12.00
2023-05-09T10:27:08.697Z,7.10
2023-05-09T10:29:39.394Z,7.37
2023-05-09T10:32:14.042Z,7.90
2023-05-09T10:34:44.484Z,8.23
2023-05-09T10:37:12.580Z,7.78
2023-05-09T10:39:39.514Z,11.50
2023-05-09T10:42:07.577Z,9.32
2023-05-09T10:44:35.041Z,5.53
2023-05-09T10:47:02.137Z,8.75
2023-05-09T10:49:28.828Z,10.13
2023-05-09T10:51:55.329Z,20.15
2023-05-09T10:54:31.050Z,7.13
2023-05-09T10:56:57.990Z,7.82
2023-05-09T10:59:46.525Z,8.82
2023-05-09T11:02:15.619Z,10.18
2023-05-09T11:04:42.259Z,9.10
2023-05-09T11:07:26.196Z,11.65
2023-05-09T11:10:06.832Z,6.25
2023-05-09T11:12:34.093Z,6.40
2023-05-09T11:15:08.039Z,5.30
2023-05-09T11:17:38.521Z,6.45
2023-05-09T11:20:06.480Z,14.55
2023-05-09T11:22:44.979Z,12.32
2023-05-09T11:25:13.784Z,14.48
2023-05-09T11:27:48.640Z,7.15
2023-05-09T11:30:20.116Z,9.32
2023-05-09T11:32:51.399Z,6.68
2023-05-09T11:37:49.537Z,8.98
2023-05-09T11:40:19.147Z,6.25
2023-05-09T11:42:56.191Z,9.00
2023-05-09T11:45:28.199Z,8.55
2023-05-09T11:47:55.064Z,4.53
2023-05-09T11:50:21.685Z,5.20
2023-05-09T11:52:51.588Z,5.50
2023-05-09T11:55:20.329Z,13.88
2023-05-09T11:57:52.262Z,3.47
2023-05-09T12:00:24.007Z,7.20
2023-05-09T12:02:51.799Z,7.82
2023-05-09T12:05:22.890Z,3.90
2023-05-09T12:07:50.056Z,4.10
2023-05-09T12:10:20.476Z,6.60
2023-05-09T12:12:52.801Z,4.97
2023-05-09T12:15:21.461Z,6.18
2023-05-09T12:18:01.356Z,4.68
2023-05-09T12:20:28.656Z,5.70
2023-05-09T12:22:55.839Z,6.38
2023-05-09T12:25:22.698Z,6.15
2023-05-09T12:27:49.220Z,6.50
2023-05-09T12:30:16.329Z,6.85
2023-05-09T12:32:43.633Z,7.45
2023-05-09T12:35:12.073Z,11.27
2023-05-09T12:37:39.168Z,9.85
2023-05-09T12:40:12.455Z,9.57
2023-05-09T12:42:40.012Z,5.80
2023-05-09T12:45:11.190Z,14.88
2023-05-09T12:47:39.049Z,7.20
2023-05-09T12:50:06.973Z,8.32
2023-05-09T12:52:35.359Z,11.25
2023-05-09T12:55:15.216Z,8.00
2023-05-09T12:57:43.970Z,12.30
2023-05-09T13:00:12.070Z,7.88
2023-05-09T13:02:42.345Z,6.00
2023-05-09T13:05:16.012Z,10.18
2023-05-09T13:07:47.736Z,9.23
2023-05-09T13:10:15.344Z,7.93
2023-05-09T13:12:48.265Z,10.77
2023-05-09T13:15:22.514Z,6.18
2023-05-09T13:17:51.081Z,6.40
2023-05-09T13:20:18.838Z,8.65
2023-05-09T13:22:46.332Z,6.35
2023-05-09T13:25:13.567Z,6.63
2023-05-09T13:27:40.308Z,8.27
2023-05-09T13:30:07.774Z,7.22
2023-05-09T13:32:35.110Z,4.45
2023-05-09T13:35:01.836Z,4.95
2023-05-09T13:37:28.581Z,10.82
2023-05-09T13:39:55.504Z,11.05
2023-05-09T13:42:22.107Z,5.90
2023-05-09T13:44:48.751Z,5.50
2023-05-09T13:47:15.655Z,6.13
2023-05-09T13:49:42.121Z,7.43
2023-05-09T13:52:08.988Z,5.47
2023-05-09T13:54:35.680Z,10.20
2023-05-09T13:57:05.922Z,9.32
2023-05-09T13:59:34.697Z,3.65
2023-05-09T14:02:01.693Z,4.55
2023-05-09T14:04:29.709Z,3.33
2023-05-09T14:06:56.356Z,4.70
2023-05-09T14:09:23.217Z,4.28
2023-05-09T14:11:51.527Z,5.30
2023-05-09T14:14:21.924Z,7.60
2023-05-09T14:16:49.310Z,2.75
2023-05-09T14:19:16.886Z,5.65
2023-05-09T14:21:44.719Z,4.75
2023-05-09T14:24:14.340Z,4.75
2023-05-09T14:26:42.515Z,5.30
2023-05-09T14:29:09.301Z,4.30
2023-05-09T14:31:36.062Z,5.70
2023-05-09T14:34:06.166Z,3.00
2023-05-09T14:36:33.077Z,10.90
2023-05-09T14:38:59.613Z,3.90
2023-05-09T14:41:26.773Z,7.35
2023-05-09T14:43:53.426Z,5.85
2023-05-09T14:46:20.208Z,7.97
2023-05-09T14:48:46.909Z,6.45
2023-05-09T14:51:14.200Z,6.57
2023-05-09T14:53:44.060Z,5.03
2023-05-09T14:56:13.382Z,3.80
2023-05-09T14:58:39.946Z,5.82
2023-05-09T15:01:06.648Z,5.95
2023-05-09T15:03:33.190Z,4.95
2023-05-09T15:05:59.824Z,5.82
2023-05-09T15:08:27.022Z,6.80
2023-05-09T15:10:56.402Z,8.63
2023-05-09T15:13:23.415Z,5.10
2023-05-09T15:15:49.962Z,9.20
2023-05-09T15:18:18.332Z,6.40
2023-05-09T15:20:44.946Z,6.35
2023-05-09T15:23:13.108Z,10.02
2023-05-09T15:25:42.984Z,6.88
2023-05-09T15:28:09.473Z,8.50
2023-05-09T15:30:38.306Z,8.63
2023-05-09T15:33:05.297Z,9.15
2023-05-09T15:35:31.900Z,9.45
2023-05-09T15:37:58.721Z,6.32
2023-05-09T15:40:25.608Z,6.75
2023-05-09T15:42:52.226Z,6.47
2023-05-09T15:45:18.807Z,7.65
2023-05-09T15:47:45.532Z,6.78
2023-05-09T15:50:12.881Z,10.65
2023-05-09T15:52:39.727Z,7.85
2023-05-09T15:55:07.167Z,4.35
2023-05-09T15:57:35.162Z,5.45
2023-05-09T16:00:01.732Z,6.85
2023-05-09T16:02:39.058Z,4.05
2023-05-09T16:05:06.209Z,4.68
2023-05-09T16:07:34.665Z,18.58
2023-05-09T16:10:02.193Z,6.55
2023-05-09T16:12:28.800Z,39.10
2023-05-09T16:14:55.441Z,28.35
2023-05-09T16:17:21.936Z,12.60
2023-05-09T16:19:48.735Z,4.38
2023-05-09T16:22:15.220Z,4.75
2023-05-09T16:24:41.957Z,5.60
2023-05-09T16:27:08.532Z,10.95
2023-05-09T16:29:35.114Z,3.97
2023-05-09T16:32:04.127Z,7.97
2023-05-09T16:34:30.797Z,8.73
2023-05-09T16:36:57.379Z,4.57
2023-05-09T16:39:23.995Z,8.68
2023-05-09T16:41:50.524Z,3.72
2023-05-09T16:44:17.257Z,10.02
2023-05-09T16:46:43.785Z,6.53
2023-05-09T16:49:11.089Z,8.20
2023-05-09T16:51:37.673Z,4.15
2023-05-09T16:54:04.261Z,7.57
2023-05-09T16:56:30.859Z,8.18
2023-05-09T16:58:57.397Z,21.30
2023-05-09T17:01:23.946Z,19.52
2023-05-09T17:03:51.143Z,11.10
2023-05-09T17:06:18.455Z,6.18
2023-05-09T17:08:46.155Z,8.20
2023-05-09T17:11:15.488Z,6.70
2023-05-09T17:13:44.734Z,5.65
2023-05-09T17:16:11.276Z,4.68
2023-05-09T17:18:38.490Z,6.15
2023-05-09T17:21:05.440Z,3.65
2023-05-09T17:23:32.434Z,5.78
2023-05-09T17:25:59.134Z,3.90
2023-05-09T17:28:25.696Z,3.35
2023-05-09T17:30:52.491Z,7.25
2023-05-09T17:33:19.337Z,6.22
2023-05-09T17:35:49.413Z,6.18
2023-05-09T17:38:16.145Z,30.35
2023-05-09T17:40:43.369Z,8.10
2023-05-09T17:43:10.577Z,22.25
2023-05-09T17:45:38.009Z,5.07
2023-05-09T17:48:04.859Z,4.22
2023-05-09T17:50:32.942Z,5.63
2023-05-09T17:52:59.547Z,6.35
2023-05-09T17:55:26.191Z,6.95
2023-05-09T17:57:52.873Z,8.68
2023-05-09T18:00:19.708Z,5.25
2023-05-09T18:02:48.103Z,5.45
2023-05-09T18:05:16.503Z,5.88
2023-05-09T18:07:43.740Z,6.93
2023-05-09T18:10:10.868Z,8.05
2023-05-09T18:12:37.567Z,6.57
2023-05-09T18:15:05.937Z,9.68
2023-05-09T18:17:37.840Z,10.23
2023-05-09T18:22:19.360Z,8.40
2023-05-09T18:24:46.193Z,7.32
2023-05-09T18:27:12.814Z,6.03
2023-05-09T18:29:39.628Z,5.90
2023-05-09T18:32:06.897Z,7.50
2023-05-09T18:34:33.841Z,10.90
2023-05-09T18:37:00.352Z,13.30
2023-05-09T18:39:27.545Z,10.23
2023-05-09T18:41:54.292Z,11.35
2023-05-09T18:44:20.878Z,12.48
2023-05-09T18:46:47.429Z,6.13
2023-05-09T18:49:18.541Z,8.60
2023-05-09T18:51:45.327Z,18.63
2023-05-09T18:54:14.757Z,8.80
2023-05-09T18:59:16.466Z,11.00
2023-05-09T19:01:46.024Z,18.73
2023-05-09T19:04:14.037Z,14.68
2023-05-09T19:06:42.178Z,11.68
2023-05-09T19:09:08.839Z,12.10
2023-05-09T19:11:35.875Z,12.70
2023-05-09T19:14:05.270Z,15.52
2023-05-09T19:16:32.197Z,13.98
2023-05-09T19:19:10.285Z,14.80
2023-05-09T19:21:41.707Z,11.98
2023-05-09T19:24:09.329Z,16.30
2023-05-09T19:26:35.953Z,15.95
2023-05-09T19:29:10.086Z,13.32
2023-05-09T19:31:37.463Z,17.02
2023-05-09T19:34:04.083Z,12.73
2023-05-09T19:36:34.108Z,54.67
2023-05-09T19:39:00.680Z,714.13
2023-05-09T19:41:27.296Z,832.92
2023-05-09T19:43:58.001Z,299.58
2023-05-09T19:46:26.767Z,843.22
2023-05-09T19:48:58.295Z,925.58
2023-05-09T19:51:25.126Z,763.67
2023-05-09T19:53:59.293Z,681.05
2023-05-09T19:56:26.043Z,644.17
2023-05-09T19:58:54.891Z,818.65
2023-05-09T20:01:26.126Z,566.35
2023-05-09T20:03:53.696Z,593.22
2023-05-09T20:06:20.843Z,470.52
2023-05-09T20:08:47.653Z,469.33
2023-05-09T20:11:15.181Z,477.48
2023-05-09T20:13:43.095Z,775.28
2023-05-09T20:16:12.897Z,654.78
2023-05-09T20:18:39.667Z,730.10
2023-05-09T20:21:09.711Z,79.22
2023-05-09T20:23:37.061Z,495.13
2023-05-09T20:26:03.864Z,546.28
2023-05-09T20:28:31.933Z,353.35
2023-05-09T20:30:58.495Z,372.25
2023-05-09T20:33:25.049Z,338.02
2023-05-09T20:35:51.536Z,352.73
2023-05-09T20:38:18.106Z,42.80
2023-05-09T20:40:45.914Z,407.60
2023-05-09T20:43:12.547Z,377.83
2023-05-09T20:45:39.194Z,428.58
2023-05-09T20:48:06.644Z,317.90
2023-05-09T20:50:35.725Z,214.40
2023-05-09T20:53:04.501Z,216.30
2023-05-09T20:55:30.994Z,335.05
2023-05-09T20:57:57.916Z,401.60
2023-05-09T21:00:24.612Z,182.13
2023-05-09T21:02:51.271Z,487.60
2023-05-09T21:05:17.788Z,265.42
2023-05-09T21:07:44.404Z,250.60
2023-05-09T21:10:11.351Z,173.38
2023-05-09T21:12:37.965Z,211.40
2023-05-09T21:15:05.208Z,189.55
2023-05-09T21:17:32.065Z,135.85
2023-05-09T21:19:58.973Z,224.68
2023-05-09T21:22:25.697Z,77.72
2023-05-09T21:24:52.717Z,26.67
2023-05-09T21:27:19.540Z,85.72
2023-05-09T21:29:49.264Z,43.05
2023-05-09T21:32:16.950Z,24.58
2023-05-09T21:34:43.502Z,113.63
2023-05-09T21:37:10.153Z,18.73
2023-05-09T21:39:36.661Z,31.17
2023-05-09T21:42:03.345Z,21.23
2023-05-09T21:44:29.937Z,13.60
2023-05-09T21:46:56.717Z,23.95
2023-05-09T21:49:27.185Z,16.30
2023-05-09T21:51:54.027Z,17.77
2023-05-09T21:54:20.947Z,21.55
2023-05-09T21:56:47.582Z,15.40
2023-05-09T21:59:14.197Z,18.17
2023-05-09T22:01:41.773Z,21.42
2023-05-09T22:06:34.953Z,220.63
2023-05-09T22:09:01.737Z,114.70
2023-05-09T22:11:28.246Z,132.90
2023-05-09T22:13:55.403Z,174.07
2023-05-09T22:16:22.425Z,80.53
2023-05-09T22:18:49.368Z,57.95
2023-05-09T22:21:16.084Z,97.95
2023-05-09T22:23:43.704Z,113.28
2023-05-09T22:26:10.354Z,84.75
2023-05-09T22:28:37.097Z,120.30
2023-05-09T22:31:06.677Z,106.20
2023-05-09T22:33:34.200Z,197.20
2023-05-09T22:36:01.159Z,153.48
2023-05-09T22:38:27.775Z,96.95
2023-05-09T22:40:54.283Z,269.92
2023-05-09T22:43:21.570Z,165.30
2023-05-09T22:45:48.146Z,460.50
2023-05-09T22:48:15.645Z,137.82
2023-05-09T22:50:42.261Z,283.90
2023-05-09T22:53:09.242Z,698.58
2023-05-09T22:55:36.480Z,257.45
2023-05-09T22:58:03.810Z,420.73
2023-05-09T23:00:30.578Z,685.70
2023-05-09T23:02:59.241Z,231.02
2023-05-09T23:05:25.983Z,84.32
2023-05-09T23:07:52.689Z,383.95
2023-05-09T23:10:19.323Z,351.70
2023-05-09T23:12:45.950Z,360.52
2023-05-09T23:15:12.592Z,118.07
2023-05-09T23:17:39.137Z,192.00
2023-05-09T23:20:06.337Z,177.90
2023-05-09T23:22:34.598Z,353.05
2023-05-09T23:25:01.174Z,308.10
2023-05-09T23:27:28.390Z,609.88
2023-05-09T23:29:55.258Z,714.97
2023-05-09T23:32:21.986Z,340.63
2023-05-09T23:34:48.621Z,1100.45
2023-05-09T23:37:15.262Z,714.50
2023-05-09T23:39:41.808Z,1010.92
2023-05-09T23:42:08.503Z,721.38
2023-05-09T23:44:35.281Z,1462.13
2023-05-09T23:47:02.475Z,1288.63
2023-05-09T23:49:29.205Z,1393.63
2023-05-09T23:51:55.906Z,1102.70
2023-05-09T23:54:24.271Z,477.70
2023-05-09T23:56:50.929Z,302.33
2023-05-09T23:59:17.619Z,714.28
